createdAt,value
2023-04-04T00:01:49.281Z,1.73
2023-04-04T00:05:52.664Z,1.77
2023-04-04T00:09:55.984Z,1.60
2023-04-04T00:13:59.754Z,1.50
2023-04-04T00:18:04.491Z,1.93
2023-04-04T00:22:07.487Z,1.63
2023-04-04T00:26:10.722Z,1.60
2023-04-04T00:30:15.438Z,1.77
2023-04-04T00:34:19.821Z,1.60
2023-04-04T00:38:22.814Z,1.63
2023-04-04T00:42:26.268Z,1.60
2023-04-04T00:46:29.689Z,1.80
2023-04-04T00:50:34.472Z,1.80
2023-04-04T00:54:37.762Z,1.50
2023-04-04T00:58:41.184Z,1.90
2023-04-04T01:02:44.319Z,2.00
2023-04-04T01:06:49.903Z,1.63
2023-04-04T01:10:53.215Z,1.63
2023-04-04T01:14:56.959Z,2.10
2023-04-04T01:19:00.499Z,1.67
2023-04-04T01:23:07.491Z,1.90
2023-04-04T01:27:13.403Z,1.93
2023-04-04T01:31:27.312Z,1.97
2023-04-04T01:35:36.827Z,2.10
2023-04-04T01:39:44.959Z,2.17
2023-04-04T01:43:51.395Z,2.03
2023-04-04T01:47:54.547Z,1.93
2023-04-04T01:52:00.219Z,1.57
2023-04-04T01:56:03.674Z,1.80
2023-04-04T02:00:12.716Z,1.80
2023-04-04T02:04:21.424Z,1.70
2023-04-04T02:08:24.748Z,1.70
2023-04-04T02:12:31.614Z,1.90
2023-04-04T02:16:36.021Z,1.63
2023-04-04T02:20:39.184Z,2.07
2023-04-04T02:24:42.455Z,1.90
2023-04-04T02:28:45.683Z,1.70
2023-04-04T02:32:50.368Z,1.90
2023-04-04T02:36:55.940Z,1.80
2023-04-04T02:40:59.621Z,1.90
2023-04-04T02:45:02.682Z,1.83
2023-04-04T02:49:07.310Z,2.00
2023-04-04T02:53:11.536Z,1.90
2023-04-04T02:57:14.667Z,1.80
2023-04-04T03:01:17.953Z,1.60
2023-04-04T03:05:22.761Z,1.97
2023-04-04T03:09:25.913Z,1.80
2023-04-04T03:13:29.309Z,1.93
2023-04-04T03:17:32.608Z,1.80
2023-04-04T03:21:37.825Z,2.20
2023-04-04T03:25:40.834Z,1.70
2023-04-04T03:29:44.136Z,2.23
2023-04-04T03:33:47.630Z,1.70
2023-04-04T03:37:52.639Z,2.10
2023-04-04T03:41:55.639Z,1.87
2023-04-04T03:46:01.689Z,1.90
2023-04-04T03:50:05.136Z,1.70
2023-04-04T03:54:11.015Z,1.80
2023-04-04T03:58:14.177Z,2.23
2023-04-04T04:02:17.413Z,1.77
2023-04-04T04:06:22.187Z,1.90
2023-04-04T04:10:26.635Z,1.83
2023-04-04T04:14:29.649Z,1.70
2023-04-04T04:18:34.173Z,1.70
2023-04-04T04:22:38.260Z,1.57
2023-04-04T04:26:42.738Z,1.87
2023-04-04T04:30:47.703Z,1.83
2023-04-04T04:34:55.010Z,2.10
2023-04-04T04:39:03.562Z,1.70
2023-04-04T04:43:13.161Z,2.13
2023-04-04T04:47:16.249Z,2.10
2023-04-04T04:51:19.617Z,2.20
2023-04-04T04:55:27.728Z,2.10
2023-04-04T04:59:42.535Z,2.00
2023-04-04T05:03:47.864Z,1.93
2023-04-04T05:07:56.822Z,1.93
2023-04-04T05:11:59.944Z,1.77
2023-04-04T05:16:16.520Z,1.80
2023-04-04T05:20:23.310Z,2.00
2023-04-04T05:24:27.740Z,1.60
2023-04-04T05:28:31.092Z,1.77
2023-04-04T05:32:39.494Z,1.80
2023-04-04T05:36:48.211Z,1.40
2023-04-04T05:40:51.464Z,1.50
2023-04-04T05:44:54.570Z,1.47
2023-04-04T05:48:59.742Z,1.87
2023-04-04T05:53:04.822Z,1.40
2023-04-04T05:57:08.495Z,1.47
2023-04-04T06:01:32.914Z,1.47
2023-04-04T06:05:43.368Z,1.80
2023-04-04T06:09:46.847Z,1.20
2023-04-04T06:13:50.113Z,1.40
2023-04-04T06:17:55.946Z,1.50
2023-04-04T06:22:01.157Z,1.33
2023-04-04T06:26:05.436Z,1.27
2023-04-04T06:30:11.849Z,1.40
2023-04-04T06:34:16.287Z,1.00
2023-04-04T06:38:30.469Z,1.40
2023-04-04T06:42:37.180Z,1.70
2023-04-04T06:46:41.669Z,1.50
2023-04-04T06:50:44.770Z,1.20
2023-04-04T06:54:51.901Z,1.10
2023-04-04T06:58:55.449Z,1.40
2023-04-04T07:03:00.239Z,1.53
2023-04-04T07:07:03.744Z,0.97
2023-04-04T07:11:08.487Z,1.50
2023-04-04T07:15:12.692Z,1.50
2023-04-04T07:19:15.884Z,1.20
2023-04-04T07:23:18.948Z,1.30
2023-04-04T07:27:23.428Z,1.45
2023-04-04T07:31:26.459Z,1.30
2023-04-04T07:35:30.144Z,1.60
2023-04-04T07:39:33.189Z,1.40
2023-04-04T07:43:37.588Z,1.50
2023-04-04T07:47:44.285Z,1.37
2023-04-04T07:51:47.330Z,1.60
2023-04-04T07:55:50.316Z,1.80
2023-04-04T07:59:54.982Z,1.20
2023-04-04T08:03:58.235Z,1.40
2023-04-04T08:08:01.397Z,1.40
2023-04-04T08:12:05.695Z,1.43
2023-04-04T08:16:10.375Z,1.20
2023-04-04T08:20:14.400Z,1.30
2023-04-04T08:24:17.397Z,1.17
2023-04-04T08:28:20.536Z,1.27
2023-04-04T08:32:25.075Z,1.00
2023-04-04T08:36:28.116Z,1.25
2023-04-04T08:40:32.708Z,1.42
2023-04-04T08:44:38.342Z,1.42
2023-04-04T08:48:45.872Z,1.25
2023-04-04T08:52:49.325Z,1.20
2023-04-04T08:56:53.075Z,1.23
2023-04-04T09:00:56.561Z,1.20
2023-04-04T09:05:06.705Z,1.00
2023-04-04T09:09:11.120Z,1.20
2023-04-04T09:13:16.556Z,1.20
2023-04-04T09:17:20.192Z,1.40
2023-04-04T09:21:24.620Z,1.20
2023-04-04T09:25:27.666Z,1.60
2023-04-04T09:29:31.130Z,1.43
2023-04-04T09:33:35.443Z,1.95
2023-04-04T09:37:42.308Z,1.70
2023-04-04T09:41:46.012Z,1.48
2023-04-04T09:45:51.046Z,1.55
2023-04-04T09:49:54.445Z,1.52
2023-04-04T09:53:59.678Z,1.45
2023-04-04T09:58:13.298Z,1.23
2023-04-04T10:02:16.854Z,1.60
2023-04-04T10:06:20.572Z,1.80
2023-04-04T10:10:26.736Z,1.60
2023-04-04T10:14:36.659Z,1.90
2023-04-04T10:18:40.281Z,1.65
2023-04-04T10:22:45.492Z,1.60
2023-04-04T10:26:49.995Z,1.65
2023-04-04T10:31:06.627Z,1.52
2023-04-04T10:35:12.342Z,1.70
2023-04-04T10:39:19.882Z,2.15
2023-04-04T10:43:28.676Z,1.85
2023-04-04T10:47:32.922Z,2.20
2023-04-04T10:51:45.257Z,1.98
2023-04-04T10:55:56.828Z,1.83
2023-04-04T11:00:05.437Z,1.70
2023-04-04T11:04:21.111Z,1.80
2023-04-04T11:08:27.287Z,1.35
2023-04-04T11:12:34.150Z,1.75
2023-04-04T11:16:48.314Z,1.60
2023-04-04T11:20:51.690Z,1.90
2023-04-04T11:25:01.556Z,1.77
2023-04-04T11:29:08.263Z,1.60
2023-04-04T11:33:15.303Z,1.60
2023-04-04T11:37:18.999Z,1.50
2023-04-04T11:41:22.128Z,1.70
2023-04-04T11:45:27.734Z,1.67
2023-04-04T11:49:35.473Z,1.50
2023-04-04T11:53:38.538Z,1.90
2023-04-04T11:57:43.321Z,2.00
2023-04-04T12:01:46.850Z,1.50
2023-04-04T12:05:51.356Z,1.80
2023-04-04T12:09:56.243Z,1.67
2023-04-04T12:14:01.212Z,1.25
2023-04-04T12:18:05.110Z,1.50
2023-04-04T12:22:09.762Z,1.83
2023-04-04T12:26:12.828Z,1.30
2023-04-04T12:30:17.154Z,1.10
2023-04-04T12:34:23.349Z,1.30
2023-04-04T12:38:28.143Z,1.70
2023-04-04T12:42:32.938Z,1.70
2023-04-04T12:46:40.072Z,1.80
2023-04-04T12:50:54.246Z,1.73
2023-04-04T12:59:10.978Z,1.50
2023-04-04T13:03:16.394Z,1.60
2023-04-04T13:07:25.889Z,1.60
2023-04-04T13:12:01.957Z,1.38
2023-04-04T13:16:08.077Z,1.63
2023-04-04T13:20:12.711Z,1.48
2023-04-04T13:24:15.937Z,1.52
2023-04-04T13:28:20.412Z,1.58
2023-04-04T13:32:23.755Z,1.80
2023-04-04T13:36:28.518Z,1.90
2023-04-04T13:40:31.617Z,1.58
2023-04-04T13:44:36.168Z,1.77
2023-04-04T13:48:39.216Z,1.75
2023-04-04T13:52:42.437Z,1.60
2023-04-04T13:56:47.395Z,1.50
2023-04-04T14:00:52.027Z,2.00
2023-04-04T14:04:55.057Z,1.80
2023-04-04T14:08:58.090Z,1.90
2023-04-04T14:13:01.704Z,2.00
2023-04-04T14:17:06.396Z,1.65
2023-04-04T14:21:09.645Z,1.70
2023-04-04T14:25:12.754Z,1.52
2023-04-04T14:29:16.082Z,1.90
2023-04-04T14:33:20.555Z,1.67
2023-04-04T14:37:24.071Z,1.90
2023-04-04T14:41:27.383Z,1.92
2023-04-04T14:45:30.440Z,1.92
2023-04-04T14:49:34.878Z,2.10
2023-04-04T14:53:37.909Z,1.77
2023-04-04T14:57:57.190Z,1.80
2023-04-04T15:02:04.180Z,1.80
2023-04-04T15:06:08.982Z,1.98
2023-04-04T15:10:12.013Z,1.58
2023-04-04T15:14:15.061Z,1.92
2023-04-04T15:18:18.263Z,2.65
2023-04-04T15:22:22.867Z,1.90
2023-04-04T15:26:26.120Z,1.80
2023-04-04T15:30:29.260Z,1.70
2023-04-04T15:34:32.352Z,2.05
2023-04-04T15:38:37.108Z,2.10
2023-04-04T15:42:40.121Z,2.08
2023-04-04T15:46:43.165Z,2.00
2023-04-04T15:50:46.320Z,1.60
2023-04-04T15:54:50.801Z,1.80
2023-04-04T15:58:53.852Z,2.25
2023-04-04T16:02:58.518Z,1.90
2023-04-04T16:07:02.653Z,2.00
2023-04-04T16:11:07.712Z,1.90
2023-04-04T16:15:11.890Z,1.92
2023-04-04T16:19:16.996Z,2.10
2023-04-04T16:23:20.280Z,2.00
2023-04-04T16:27:24.841Z,1.90
2023-04-04T16:31:28.373Z,2.10
2023-04-04T16:35:32.613Z,2.38
2023-04-04T16:39:36.330Z,2.20
2023-04-04T16:43:40.731Z,2.08
2023-04-04T16:47:43.773Z,1.98
2023-04-04T16:51:47.019Z,1.90
2023-04-04T16:55:50.011Z,2.00
2023-04-04T16:59:54.426Z,1.95
2023-04-04T17:03:57.437Z,1.98
2023-04-04T17:08:00.660Z,1.95
2023-04-04T17:12:04.163Z,2.75
2023-04-04T17:16:09.165Z,2.22
2023-04-04T17:20:17.729Z,2.40
2023-04-04T17:24:23.182Z,2.30
2023-04-04T17:28:26.204Z,2.20
2023-04-04T17:32:31.487Z,2.20
2023-04-04T17:36:34.686Z,2.35
2023-04-04T17:40:40.690Z,2.60
2023-04-04T17:44:44.275Z,2.33
2023-04-04T17:48:48.663Z,2.70
2023-04-04T17:52:51.662Z,2.33
2023-04-04T17:56:54.709Z,2.22
2023-04-04T18:00:58.116Z,2.80
2023-04-04T18:05:02.632Z,2.50
2023-04-04T18:09:05.664Z,3.03
2023-04-04T18:13:08.783Z,3.00
2023-04-04T18:17:11.916Z,2.53
2023-04-04T18:21:16.392Z,2.50
2023-04-04T18:25:19.783Z,2.83
2023-04-04T18:29:22.827Z,2.50
2023-04-04T18:33:27.299Z,2.70
2023-04-04T18:37:31.828Z,2.60
2023-04-04T18:41:35.063Z,2.97
2023-04-04T18:45:40.604Z,2.90
2023-04-04T18:49:44.010Z,3.05
2023-04-04T18:53:48.428Z,2.95
2023-04-04T18:57:51.436Z,3.10
2023-04-04T19:01:56.478Z,2.92
2023-04-04T19:06:01.578Z,2.60
2023-04-04T19:10:07.793Z,3.05
2023-04-04T19:14:11.013Z,3.10
2023-04-04T19:18:14.242Z,2.63
2023-04-04T19:22:17.402Z,2.95
2023-04-04T19:26:22.437Z,3.03
2023-04-04T19:30:43.798Z,3.03
2023-04-04T19:34:47.533Z,2.90
2023-04-04T19:38:51.487Z,2.92
2023-04-04T19:42:57.377Z,2.97
2023-04-04T19:47:01.157Z,2.97
2023-04-04T19:51:08.537Z,2.72
2023-04-04T19:55:11.830Z,3.13
2023-04-04T19:59:48.412Z,3.30
2023-04-04T20:03:53.186Z,3.17
2023-04-04T20:07:56.386Z,2.90
2023-04-04T20:11:59.389Z,3.10
2023-04-04T20:16:04.806Z,2.90
2023-04-04T20:20:12.287Z,3.08
2023-04-04T20:24:18.505Z,3.33
2023-04-04T20:28:26.970Z,3.17
2023-04-04T20:32:30.074Z,3.00
2023-04-04T20:36:42.201Z,3.20
2023-04-04T20:40:45.374Z,2.90
2023-04-04T20:44:48.514Z,3.27
2023-04-04T20:48:54.239Z,3.20
2023-04-04T20:53:00.372Z,2.70
2023-04-04T20:57:04.429Z,3.20
2023-04-04T21:01:10.179Z,3.27
2023-04-04T21:05:28.461Z,3.23
2023-04-04T21:09:32.976Z,3.07
2023-04-04T21:13:37.837Z,3.50
2023-04-04T21:17:40.984Z,3.77
2023-04-04T21:21:44.038Z,3.60
2023-04-04T21:25:48.497Z,4.00
2023-04-04T21:29:51.665Z,3.37
2023-04-04T21:33:58.177Z,3.27
2023-04-04T21:38:01.319Z,3.53
2023-04-04T21:42:08.581Z,3.53
2023-04-04T21:46:12.278Z,3.27
2023-04-04T21:50:15.683Z,3.90
2023-04-04T21:54:19.474Z,3.40
2023-04-04T21:58:23.983Z,4.10
2023-04-04T22:02:27.059Z,3.47
2023-04-04T22:06:31.154Z,3.47
2023-04-04T22:10:34.294Z,3.53
2023-04-04T22:14:43.626Z,3.40
2023-04-04T22:18:48.417Z,3.57
2023-04-04T22:22:51.465Z,3.43
2023-04-04T22:26:55.145Z,3.30
2023-04-04T22:30:59.684Z,3.20
2023-04-04T22:35:03.335Z,3.33
2023-04-04T22:39:06.487Z,3.20
2023-04-04T22:43:09.610Z,3.23
2023-04-04T22:47:14.422Z,2.90
2023-04-04T22:51:17.443Z,3.10
2023-04-04T22:55:23.258Z,3.20
2023-04-04T22:59:26.338Z,3.20
2023-04-04T23:03:31.173Z,3.00
2023-04-04T23:07:34.489Z,2.80
2023-04-04T23:11:38.314Z,3.40
2023-04-04T23:15:44.272Z,2.97
2023-04-04T23:19:48.696Z,2.80
2023-04-04T23:23:51.776Z,3.07
2023-04-04T23:27:55.004Z,2.80
2023-04-04T23:31:58.172Z,3.03
2023-04-04T23:36:02.563Z,2.93
2023-04-04T23:40:07.183Z,2.63
2023-04-04T23:44:10.442Z,3.07
2023-04-04T23:48:13.730Z,3.03
2023-04-04T23:52:18.216Z,2.93
2023-04-04T23:56:21.514Z,3.07
